createdAt,value
2023-05-20T00:02:13.123Z,6.35
2023-05-20T00:04:42.350Z,6.30
2023-05-20T00:07:09.401Z,6.37
2023-05-20T00:09:36.362Z,5.93
2023-05-20T00:12:03.371Z,6.15
2023-05-20T00:14:30.314Z,6.07
2023-05-20T00:16:57.237Z,6.90
2023-05-20T00:19:24.274Z,6.43
2023-05-20T00:21:51.337Z,6.95
2023-05-20T00:24:18.263Z,6.93
2023-05-20T00:26:45.159Z,7.10
2023-05-20T00:29:12.037Z,7.28
2023-05-20T00:31:39.017Z,8.02
2023-05-20T00:34:06.016Z,8.20
2023-05-20T00:36:32.936Z,8.75
2023-05-20T00:39:00.251Z,8.50
2023-05-20T00:41:27.458Z,7.47
2023-05-20T00:43:55.146Z,7.50
2023-05-20T00:46:24.623Z,7.10
2023-05-20T00:48:51.658Z,7.72
2023-05-20T00:51:19.015Z,7.47
2023-05-20T00:53:46.390Z,6.93
2023-05-20T00:56:13.531Z,5.47
2023-05-20T00:58:40.803Z,6.00
2023-05-20T01:01:07.807Z,6.10
2023-05-20T01:03:35.423Z,5.47
2023-05-20T01:06:03.215Z,5.55
2023-05-20T01:08:30.237Z,6.28
2023-05-20T01:11:16.826Z,5.18
2023-05-20T01:13:47.512Z,5.62
2023-05-20T01:16:15.736Z,5.55
2023-05-20T01:18:43.683Z,5.90
2023-05-20T01:21:12.795Z,5.78
2023-05-20T01:23:41.309Z,6.25
2023-05-20T01:26:09.168Z,6.20
2023-05-20T01:28:38.885Z,6.20
2023-05-20T01:31:08.785Z,6.37
2023-05-20T01:33:36.957Z,6.03
2023-05-20T01:36:04.274Z,5.70
2023-05-20T01:38:31.766Z,6.40
2023-05-20T01:40:59.933Z,6.10
2023-05-20T01:43:27.453Z,7.07
2023-05-20T01:45:54.344Z,6.60
2023-05-20T01:48:21.235Z,6.62
2023-05-20T01:50:48.152Z,6.37
2023-05-20T01:53:15.148Z,7.30
2023-05-20T01:55:42.080Z,7.60
2023-05-20T01:58:08.982Z,7.57
2023-05-20T02:00:36.003Z,7.95
2023-05-20T02:03:03.919Z,8.32
2023-05-20T02:05:31.146Z,7.95
2023-05-20T02:07:58.201Z,7.30
2023-05-20T02:10:25.114Z,7.68
2023-05-20T02:12:52.079Z,6.75
2023-05-20T02:15:18.941Z,6.57
2023-05-20T02:17:47.214Z,5.95
2023-05-20T02:20:14.211Z,5.55
2023-05-20T02:22:41.192Z,5.07
2023-05-20T02:25:08.607Z,5.50
2023-05-20T02:27:35.532Z,5.53
2023-05-20T02:30:02.401Z,5.07
2023-05-20T02:32:29.746Z,5.22
2023-05-20T02:34:56.772Z,4.90
2023-05-20T02:37:23.751Z,6.10
2023-05-20T02:39:50.772Z,6.12
2023-05-20T02:42:17.637Z,6.78
2023-05-20T02:44:44.521Z,7.60
2023-05-20T02:47:11.395Z,7.37
2023-05-20T02:49:38.272Z,8.32
2023-05-20T02:52:05.575Z,6.90
2023-05-20T02:54:32.564Z,7.93
2023-05-20T02:56:59.436Z,7.87
2023-05-20T02:59:26.807Z,7.75
2023-05-20T03:01:53.767Z,7.62
2023-05-20T03:04:21.927Z,7.93
2023-05-20T03:06:48.966Z,7.72
2023-05-20T03:09:15.913Z,8.15
2023-05-20T03:11:42.819Z,7.30
2023-05-20T03:14:09.740Z,7.55
2023-05-20T03:16:36.690Z,7.90
2023-05-20T03:19:03.693Z,8.52
2023-05-20T03:21:30.625Z,8.90
2023-05-20T03:23:57.504Z,9.68
2023-05-20T03:26:25.851Z,9.60
2023-05-20T03:28:52.792Z,9.65
2023-05-20T03:31:19.711Z,9.05
2023-05-20T03:33:46.736Z,9.25
2023-05-20T03:36:13.662Z,7.18
2023-05-20T03:38:40.568Z,7.03
2023-05-20T03:41:07.639Z,4.93
2023-05-20T03:43:34.530Z,6.00
2023-05-20T03:46:01.609Z,4.82
2023-05-20T03:48:28.513Z,5.35
2023-05-20T03:50:55.616Z,5.55
2023-05-20T03:53:22.585Z,5.12
2023-05-20T03:55:49.588Z,5.75
2023-05-20T03:58:16.791Z,5.85
2023-05-20T04:00:43.672Z,6.82
2023-05-20T04:03:10.757Z,6.75
2023-05-20T04:05:37.825Z,7.55
2023-05-20T04:08:05.274Z,7.78
2023-05-20T04:10:32.977Z,7.60
2023-05-20T04:13:00.061Z,7.80
2023-05-20T04:15:29.918Z,7.57
2023-05-20T04:17:56.887Z,7.47
2023-05-20T04:20:24.673Z,7.57
2023-05-20T04:22:52.479Z,6.65
2023-05-20T04:25:19.562Z,6.80
2023-05-20T04:27:46.745Z,5.87
2023-05-20T04:30:14.129Z,6.18
2023-05-20T04:32:41.815Z,5.50
2023-05-20T04:35:12.220Z,5.82
2023-05-20T04:37:39.285Z,5.35
2023-05-20T04:40:06.956Z,6.50
2023-05-20T04:42:37.942Z,6.20
2023-05-20T04:45:06.033Z,6.97
2023-05-20T04:47:39.307Z,6.87
2023-05-20T04:50:10.956Z,6.50
2023-05-20T04:52:47.786Z,7.30
2023-05-20T04:55:16.148Z,7.03
2023-05-20T04:57:43.704Z,7.40
2023-05-20T05:00:12.690Z,7.90
2023-05-20T05:02:39.977Z,8.38
2023-05-20T05:05:07.696Z,7.43
2023-05-20T05:07:34.646Z,7.00
2023-05-20T05:10:01.761Z,6.85
2023-05-20T05:12:28.715Z,6.28
2023-05-20T05:14:55.596Z,6.12
2023-05-20T05:17:22.507Z,6.35
2023-05-20T05:19:49.488Z,6.55
2023-05-20T05:22:16.625Z,6.00
2023-05-20T05:24:43.566Z,7.97
2023-05-20T05:27:10.465Z,7.68
2023-05-20T05:29:37.371Z,7.62
2023-05-20T05:32:04.497Z,8.90
2023-05-20T05:34:31.385Z,8.20
2023-05-20T05:36:58.243Z,7.80
2023-05-20T05:39:25.178Z,8.27
2023-05-20T05:41:52.160Z,7.45
2023-05-20T05:44:19.055Z,8.18
2023-05-20T05:46:45.982Z,8.90
2023-05-20T05:49:12.934Z,7.82
2023-05-20T05:51:39.873Z,7.90
2023-05-20T05:54:06.786Z,7.15
2023-05-20T05:56:33.737Z,9.27
2023-05-20T05:59:00.642Z,9.57
2023-05-20T06:01:27.587Z,8.57
2023-05-20T06:03:54.679Z,10.25
2023-05-20T06:06:21.717Z,9.98
2023-05-20T06:08:48.628Z,9.50
2023-05-20T06:11:15.728Z,9.50
2023-05-20T06:13:42.724Z,9.63
2023-05-20T06:16:09.993Z,10.23
2023-05-20T06:18:36.926Z,10.32
2023-05-20T06:21:04.059Z,9.85
2023-05-20T06:23:30.936Z,8.57
2023-05-20T06:25:59.443Z,10.52
2023-05-20T06:28:27.227Z,6.35
2023-05-20T06:30:57.833Z,9.73
2023-05-20T06:33:27.767Z,8.77
2023-05-20T06:35:55.941Z,9.77
2023-05-20T06:38:23.222Z,9.40
2023-05-20T06:40:50.173Z,11.05
2023-05-20T06:43:17.624Z,7.65
2023-05-20T06:45:44.653Z,12.57
2023-05-20T06:48:11.574Z,11.07
2023-05-20T06:50:38.480Z,6.78
2023-05-20T06:53:05.514Z,9.35
2023-05-20T06:55:32.746Z,11.52
2023-05-20T06:58:00.161Z,10.07
2023-05-20T07:00:27.168Z,10.48
2023-05-20T07:02:54.146Z,9.40
2023-05-20T07:05:21.231Z,10.18
2023-05-20T07:07:48.086Z,11.15
2023-05-20T07:10:14.988Z,10.50
2023-05-20T07:12:42.348Z,9.90
2023-05-20T07:15:09.735Z,10.18
2023-05-20T07:17:37.092Z,9.48
2023-05-20T07:20:04.451Z,9.50
2023-05-20T07:22:31.446Z,8.48
2023-05-20T07:24:59.650Z,9.90
2023-05-20T07:27:26.535Z,9.13
2023-05-20T07:29:53.403Z,10.18
2023-05-20T07:32:20.533Z,9.82
2023-05-20T07:34:47.435Z,9.35
2023-05-20T07:37:14.999Z,9.35
2023-05-20T07:39:41.919Z,9.45
2023-05-20T07:42:08.900Z,8.75
2023-05-20T07:44:36.360Z,8.45
2023-05-20T07:47:03.476Z,9.43
2023-05-20T07:49:30.392Z,8.88
2023-05-20T07:51:57.247Z,9.35
2023-05-20T07:54:24.443Z,9.30
2023-05-20T07:56:51.644Z,9.52
2023-05-20T07:59:18.544Z,7.10
2023-05-20T08:01:45.539Z,9.38
2023-05-20T08:04:12.575Z,8.27
2023-05-20T08:06:40.019Z,7.60
2023-05-20T08:09:07.455Z,8.68
2023-05-20T08:11:34.393Z,8.70
2023-05-20T08:14:02.270Z,8.30
2023-05-20T08:16:29.199Z,8.43
2023-05-20T08:18:56.221Z,7.12
2023-05-20T08:21:23.127Z,8.57
2023-05-20T08:23:50.031Z,8.48
2023-05-20T08:26:17.104Z,9.18
2023-05-20T08:28:44.077Z,9.25
2023-05-20T08:31:11.054Z,8.68
2023-05-20T08:33:38.022Z,8.70
2023-05-20T08:36:05.016Z,7.90
2023-05-20T08:38:31.904Z,8.05
2023-05-20T08:40:58.787Z,8.07
2023-05-20T08:43:26.663Z,5.68
2023-05-20T08:45:53.764Z,8.02
2023-05-20T08:48:23.520Z,7.55
2023-05-20T08:50:51.988Z,7.15
2023-05-20T08:53:19.721Z,8.25
2023-05-20T08:55:49.148Z,8.52
2023-05-20T08:58:17.921Z,8.23
2023-05-20T09:00:44.873Z,8.52
2023-05-20T09:03:11.850Z,8.95
2023-05-20T09:05:38.833Z,8.80
2023-05-20T09:08:09.194Z,8.13
2023-05-20T09:10:37.372Z,7.87
2023-05-20T09:13:06.954Z,8.20
2023-05-20T09:15:35.213Z,8.32
2023-05-20T09:18:07.263Z,7.10
2023-05-20T09:20:37.507Z,8.35
2023-05-20T09:23:06.533Z,8.38
2023-05-20T09:25:34.137Z,8.75
2023-05-20T09:28:01.528Z,8.80
2023-05-20T09:30:28.596Z,9.57
2023-05-20T09:32:57.022Z,7.93
2023-05-20T09:35:24.936Z,7.87
2023-05-20T09:37:57.313Z,7.47
2023-05-20T09:40:29.862Z,7.87
2023-05-20T09:43:11.373Z,7.40
2023-05-20T09:45:39.094Z,7.53
2023-05-20T09:48:06.423Z,8.57
2023-05-20T09:50:33.521Z,8.32
2023-05-20T09:53:04.115Z,8.75
2023-05-20T09:55:32.208Z,7.22
2023-05-20T09:58:02.752Z,6.85
2023-05-20T10:00:29.995Z,6.97
2023-05-20T10:02:57.469Z,7.68
2023-05-20T10:05:36.159Z,7.85
2023-05-20T10:08:24.100Z,6.78
2023-05-20T10:11:17.610Z,6.68
2023-05-20T10:14:05.941Z,6.57
2023-05-20T10:16:51.183Z,6.43
2023-05-20T10:19:31.361Z,6.60
2023-05-20T10:21:59.150Z,6.20
2023-05-20T10:24:36.370Z,6.25
2023-05-20T10:27:05.057Z,6.40
2023-05-20T10:29:55.861Z,6.07
2023-05-20T10:32:31.728Z,6.00
2023-05-20T10:35:05.439Z,4.10
2023-05-20T10:37:34.644Z,7.00
2023-05-20T10:40:11.795Z,5.70
2023-05-20T10:42:38.878Z,7.00
2023-05-20T10:45:07.313Z,7.10
2023-05-20T10:47:35.321Z,4.93
2023-05-20T10:50:02.970Z,6.55
2023-05-20T10:52:34.288Z,6.28
2023-05-20T10:55:01.893Z,6.40
2023-05-20T10:57:29.578Z,7.03
2023-05-20T10:59:57.094Z,6.72
2023-05-20T11:02:27.349Z,7.20
2023-05-20T11:04:56.665Z,6.18
2023-05-20T11:07:28.193Z,6.50
2023-05-20T11:09:59.102Z,7.22
2023-05-20T11:12:27.487Z,7.03
2023-05-20T11:14:54.624Z,6.53
2023-05-20T11:17:21.629Z,7.32
2023-05-20T11:19:48.869Z,6.57
2023-05-20T11:22:16.133Z,6.75
2023-05-20T11:24:43.054Z,6.35
2023-05-20T11:27:09.983Z,6.80
2023-05-20T11:29:37.446Z,6.57
2023-05-20T11:32:04.762Z,6.78
2023-05-20T11:34:36.570Z,6.00
2023-05-20T11:37:07.956Z,6.45
2023-05-20T11:39:34.888Z,6.87
2023-05-20T11:42:01.793Z,6.55
2023-05-20T11:44:28.703Z,6.57
2023-05-20T11:47:02.282Z,6.60
2023-05-20T11:49:29.417Z,5.87
2023-05-20T11:51:57.191Z,6.45
2023-05-20T11:54:25.215Z,6.60
2023-05-20T11:56:52.274Z,6.50
2023-05-20T11:59:19.152Z,6.55
2023-05-20T12:01:46.094Z,5.87
2023-05-20T12:04:16.665Z,6.10
2023-05-20T12:06:44.314Z,7.10
2023-05-20T12:09:11.512Z,5.53
2023-05-20T12:11:41.295Z,6.90
2023-05-20T12:14:09.241Z,6.70
2023-05-20T12:16:37.493Z,6.53
2023-05-20T12:19:04.842Z,6.87
2023-05-20T12:21:32.202Z,6.60
2023-05-20T12:23:59.903Z,4.97
2023-05-20T12:26:28.074Z,6.85
2023-05-20T12:28:55.325Z,6.53
2023-05-20T12:31:22.342Z,6.60
2023-05-20T12:33:49.300Z,6.20
2023-05-20T12:36:16.476Z,7.15
2023-05-20T12:38:43.506Z,6.57
2023-05-20T12:41:10.461Z,6.32
2023-05-20T12:43:37.637Z,5.93
2023-05-20T12:46:05.087Z,6.00
2023-05-20T12:48:32.134Z,6.40
2023-05-20T12:50:59.046Z,6.00
2023-05-20T12:53:25.957Z,6.40
2023-05-20T12:55:52.885Z,5.80
2023-05-20T12:58:20.080Z,5.40
2023-05-20T13:00:46.996Z,6.25
2023-05-20T13:03:14.028Z,6.37
2023-05-20T13:05:41.098Z,6.95
2023-05-20T13:08:09.199Z,6.12
2023-05-20T13:10:36.602Z,7.05
2023-05-20T13:13:03.682Z,6.30
2023-05-20T13:15:30.595Z,6.03
2023-05-20T13:17:57.692Z,6.87
2023-05-20T13:20:24.626Z,6.00
2023-05-20T13:22:51.636Z,6.00
2023-05-20T13:25:18.599Z,6.07
2023-05-20T13:27:45.597Z,6.37
2023-05-20T13:30:12.772Z,6.07
2023-05-20T13:32:39.687Z,6.62
2023-05-20T13:35:07.272Z,6.32
2023-05-20T13:37:34.147Z,6.78
2023-05-20T13:40:01.066Z,5.43
2023-05-20T13:42:28.121Z,6.07
2023-05-20T13:44:55.034Z,6.28
2023-05-20T13:47:21.948Z,5.82
2023-05-20T13:49:48.876Z,6.30
2023-05-20T13:52:15.837Z,5.53
2023-05-20T13:54:44.858Z,5.95
2023-05-20T13:57:11.746Z,6.28
2023-05-20T13:59:38.819Z,6.53
2023-05-20T14:02:06.101Z,6.25
2023-05-20T14:04:38.185Z,6.60
2023-05-20T14:07:07.658Z,6.50
2023-05-20T14:09:36.535Z,6.25
2023-05-20T14:12:05.221Z,6.55
2023-05-20T14:14:32.169Z,6.65
2023-05-20T14:16:59.061Z,6.03
2023-05-20T14:19:27.168Z,5.40
2023-05-20T14:21:54.187Z,6.40
2023-05-20T14:24:23.436Z,5.45
2023-05-20T14:26:50.744Z,6.47
2023-05-20T14:29:17.938Z,6.70
2023-05-20T14:31:45.226Z,5.65
2023-05-20T14:34:12.256Z,6.53
2023-05-20T14:36:39.518Z,6.30
2023-05-20T14:39:06.420Z,6.00
2023-05-20T14:41:33.303Z,6.10
2023-05-20T14:44:00.195Z,6.10
2023-05-20T14:46:27.308Z,6.53
2023-05-20T14:48:54.261Z,6.65
2023-05-20T14:51:21.202Z,6.07
2023-05-20T14:53:48.102Z,6.15
2023-05-20T14:56:14.972Z,6.15
2023-05-20T14:58:42.144Z,6.47
2023-05-20T15:01:09.346Z,6.40
2023-05-20T15:03:36.329Z,6.82
2023-05-20T15:06:03.293Z,6.15
2023-05-20T15:08:30.167Z,6.53
2023-05-20T15:10:57.134Z,5.25
2023-05-20T15:13:24.098Z,6.78
2023-05-20T15:15:51.162Z,5.53
2023-05-20T15:18:18.122Z,5.60
2023-05-20T15:20:45.183Z,6.53
2023-05-20T15:23:12.406Z,5.43
2023-05-20T15:25:39.333Z,7.05
2023-05-20T15:28:06.323Z,6.62
2023-05-20T15:30:33.436Z,6.50
2023-05-20T15:33:01.336Z,6.75
2023-05-20T15:35:28.797Z,6.60
2023-05-20T15:37:55.744Z,5.43
2023-05-20T15:40:22.785Z,7.00
2023-05-20T15:42:49.659Z,6.18
2023-05-20T15:45:16.640Z,6.18
2023-05-20T15:47:43.599Z,6.57
2023-05-20T15:50:11.507Z,6.25
2023-05-20T15:52:38.802Z,4.45
2023-05-20T15:55:06.385Z,5.43
2023-05-20T15:57:33.340Z,4.45
2023-05-20T16:00:00.394Z,6.85
2023-05-20T16:02:27.500Z,5.65
2023-05-20T16:04:54.630Z,6.32
2023-05-20T16:07:24.592Z,5.12
2023-05-20T16:09:51.656Z,6.62
2023-05-20T16:12:18.619Z,6.53
2023-05-20T16:14:45.855Z,7.00
2023-05-20T16:17:12.881Z,5.80
2023-05-20T16:19:39.806Z,7.25
2023-05-20T16:22:06.829Z,7.07
2023-05-20T16:24:33.668Z,7.20
2023-05-20T16:27:00.623Z,6.90
2023-05-20T16:29:27.567Z,6.93
2023-05-20T16:31:54.509Z,6.57
2023-05-20T16:34:21.493Z,6.53
2023-05-20T16:36:48.509Z,6.78
2023-05-20T16:39:16.193Z,6.30
2023-05-20T16:41:43.398Z,6.60
2023-05-20T16:44:10.809Z,6.35
2023-05-20T16:46:37.699Z,6.68
2023-05-20T16:49:04.681Z,6.95
2023-05-20T16:51:31.566Z,7.80
2023-05-20T16:53:58.412Z,7.50
2023-05-20T16:56:25.287Z,7.22
2023-05-20T16:58:53.331Z,7.90
2023-05-20T17:01:21.616Z,7.75
2023-05-20T17:03:49.033Z,7.32
2023-05-20T17:06:23.929Z,7.60
2023-05-20T17:08:51.135Z,7.57
2023-05-20T17:11:18.059Z,8.30
2023-05-20T17:13:44.986Z,8.07
2023-05-20T17:16:12.338Z,7.70
2023-05-20T17:18:39.273Z,7.62
2023-05-20T17:21:06.243Z,8.02
2023-05-20T17:23:33.097Z,7.90
2023-05-20T17:26:00.018Z,8.02
2023-05-20T17:28:26.917Z,7.70
2023-05-20T17:30:53.823Z,8.52
2023-05-20T17:33:21.008Z,8.10
2023-05-20T17:35:48.059Z,8.23
2023-05-20T17:38:14.910Z,7.68
2023-05-20T17:40:41.798Z,7.20
2023-05-20T17:43:08.716Z,8.07
2023-05-20T17:45:35.599Z,7.93
2023-05-20T17:48:08.214Z,7.60
2023-05-20T17:50:37.788Z,8.00
2023-05-20T17:53:04.778Z,8.30
2023-05-20T17:55:32.978Z,8.00
2023-05-20T17:58:02.011Z,7.87
2023-05-20T18:00:29.054Z,8.15
2023-05-20T18:02:58.830Z,7.75
2023-05-20T18:05:26.660Z,8.10
2023-05-20T18:07:53.596Z,7.50
2023-05-20T18:10:20.783Z,8.45
2023-05-20T18:12:47.702Z,8.43
2023-05-20T18:15:14.621Z,8.02
2023-05-20T18:17:41.599Z,7.72
2023-05-20T18:20:09.875Z,8.10
2023-05-20T18:22:36.819Z,7.78
2023-05-20T18:25:03.957Z,8.10
2023-05-20T18:27:32.011Z,8.90
2023-05-20T18:29:59.202Z,8.40
2023-05-20T18:32:28.620Z,8.40
2023-05-20T18:34:55.615Z,7.87
2023-05-20T18:37:22.532Z,8.30
2023-05-20T18:39:49.472Z,8.75
2023-05-20T18:42:16.349Z,7.90
2023-05-20T18:44:43.606Z,9.50
2023-05-20T18:47:11.272Z,9.07
2023-05-20T18:49:38.153Z,9.45
2023-05-20T18:52:05.247Z,10.10
2023-05-20T18:54:32.122Z,10.15
2023-05-20T18:56:59.037Z,10.05
2023-05-20T18:59:26.131Z,9.40
2023-05-20T19:01:53.076Z,9.50
2023-05-20T19:04:19.928Z,10.05
2023-05-20T19:06:48.183Z,10.32
2023-05-20T19:09:15.071Z,10.38
2023-05-20T19:11:41.976Z,9.68
2023-05-20T19:14:08.927Z,9.10
2023-05-20T19:16:36.024Z,9.10
2023-05-20T19:19:03.147Z,9.75
2023-05-20T19:21:31.497Z,9.23
2023-05-20T19:23:58.496Z,9.82
2023-05-20T19:26:26.631Z,9.82
2023-05-20T19:28:53.525Z,9.65
2023-05-20T19:31:23.299Z,9.32
2023-05-20T19:33:51.005Z,9.73
2023-05-20T19:36:17.941Z,9.63
2023-05-20T19:38:44.821Z,9.18
2023-05-20T19:41:12.783Z,9.40
2023-05-20T19:43:40.089Z,9.25
2023-05-20T19:46:07.117Z,10.65
2023-05-20T19:48:34.328Z,9.73
2023-05-20T19:51:01.704Z,9.80
2023-05-20T19:53:28.650Z,9.95
2023-05-20T19:55:55.701Z,9.65
2023-05-20T19:58:22.984Z,9.27
2023-05-20T20:00:49.871Z,9.50
2023-05-20T20:03:16.769Z,9.95
2023-05-20T20:05:43.699Z,9.63
2023-05-20T20:08:10.937Z,9.70
2023-05-20T20:10:37.856Z,9.45
2023-05-20T20:13:04.736Z,9.68
2023-05-20T20:15:32.231Z,9.48
2023-05-20T20:17:59.526Z,9.75
2023-05-20T20:20:27.031Z,9.75
2023-05-20T20:22:54.125Z,10.50
2023-05-20T20:25:21.167Z,9.88
2023-05-20T20:27:48.638Z,10.05
2023-05-20T20:30:15.846Z,10.10
2023-05-20T20:32:42.883Z,10.43
2023-05-20T20:35:11.018Z,10.38
2023-05-20T20:37:38.541Z,10.55
2023-05-20T20:40:08.175Z,11.98
2023-05-20T20:42:35.115Z,10.70
2023-05-20T20:45:02.537Z,10.52
2023-05-20T20:47:29.752Z,10.98
2023-05-20T20:49:56.973Z,11.45
2023-05-20T20:52:23.886Z,11.05
2023-05-20T20:54:50.783Z,10.07
2023-05-20T20:57:17.706Z,10.55
2023-05-20T20:59:47.977Z,9.73
2023-05-20T21:02:15.194Z,9.30
2023-05-20T21:04:42.907Z,9.10
2023-05-20T21:07:09.899Z,9.48
2023-05-20T21:09:36.828Z,10.20
2023-05-20T21:12:06.928Z,10.40
2023-05-20T21:14:33.905Z,10.73
2023-05-20T21:17:01.114Z,11.07
2023-05-20T21:19:28.472Z,10.80
2023-05-20T21:21:55.736Z,10.07
2023-05-20T21:24:22.575Z,10.30
2023-05-20T21:26:49.431Z,10.10
2023-05-20T21:29:16.380Z,10.48
2023-05-20T21:31:43.262Z,10.23
2023-05-20T21:34:10.134Z,10.52
2023-05-20T21:36:37.129Z,11.02
2023-05-20T21:39:04.210Z,10.80
2023-05-20T21:41:31.139Z,10.65
2023-05-20T21:43:58.055Z,10.20
2023-05-20T21:46:25.097Z,9.98
2023-05-20T21:48:52.054Z,10.40
2023-05-20T21:51:18.943Z,10.35
2023-05-20T21:53:46.033Z,10.15
2023-05-20T21:56:12.952Z,9.93
2023-05-20T21:58:41.827Z,11.35
2023-05-20T22:01:12.114Z,10.27
2023-05-20T22:03:40.224Z,11.95
2023-05-20T22:06:07.436Z,12.37
2023-05-20T22:08:34.350Z,11.80
2023-05-20T22:11:05.553Z,12.70
2023-05-20T22:13:33.320Z,11.02
2023-05-20T22:16:01.594Z,9.73
2023-05-20T22:18:29.316Z,9.13
2023-05-20T22:20:59.254Z,9.55
2023-05-20T22:23:26.945Z,8.95
2023-05-20T22:25:55.137Z,9.15
2023-05-20T22:28:22.124Z,8.68
2023-05-20T22:30:48.984Z,8.50
2023-05-20T22:33:15.882Z,8.85
2023-05-20T22:35:42.779Z,8.70
2023-05-20T22:38:09.692Z,8.93
2023-05-20T22:40:36.630Z,7.90
2023-05-20T22:43:03.553Z,8.60
2023-05-20T22:45:30.754Z,8.57
2023-05-20T22:47:57.724Z,8.77
2023-05-20T22:50:26.471Z,9.85
2023-05-20T22:52:53.390Z,8.75
2023-05-20T22:55:20.310Z,8.27
2023-05-20T22:57:47.201Z,8.68
2023-05-20T23:00:15.611Z,8.10
2023-05-20T23:02:42.500Z,8.95
2023-05-20T23:05:09.515Z,8.82
2023-05-20T23:07:36.411Z,8.32
2023-05-20T23:10:03.565Z,8.50
2023-05-20T23:12:30.417Z,8.70
2023-05-20T23:14:57.294Z,8.45
2023-05-20T23:17:24.338Z,8.55
2023-05-20T23:19:51.377Z,8.25
2023-05-20T23:22:18.656Z,8.73
2023-05-20T23:24:45.609Z,9.40
2023-05-20T23:27:12.512Z,9.15
2023-05-20T23:29:39.901Z,9.10
2023-05-20T23:32:07.092Z,8.32
2023-05-20T23:34:34.155Z,9.23
2023-05-20T23:37:01.096Z,7.90
2023-05-20T23:39:27.995Z,7.75
2023-05-20T23:41:54.864Z,8.40
2023-05-20T23:44:21.744Z,8.32
2023-05-20T23:46:49.782Z,7.97
2023-05-20T23:49:18.645Z,8.27
2023-05-20T23:51:45.704Z,8.15
2023-05-20T23:54:16.518Z,7.72
2023-05-20T23:56:43.543Z,8.55
2023-05-20T23:59:10.651Z,8.35
